Terminal Aerodrome Forecast
Issued by NWS

Home | Current Version | Previous Version | Text Only | Print | Product List | Glossary On
Versions: 1 2 3 4 5 6 7 8 9 10 11 12 13 14 15 16 17 18 19 20 21 22 23 24 25
000
FTUS43 KDTX 210200 AAA
TAFYIP
TAF AMD
KYIP 210200Z 2102/2124 20004KT 1 1/2SM BR OVC003
      TEMPO 2102/2104 1/2SM FG OVC002
     FM210400 VRB03KT 1/4SM FG VV002
     FM211400 17008KT 1SM BR OVC002
     FM211700 18008KT 3SM BR OVC006
     FM212000 18008KT 6SM BR SCT010 OVC020=

USA.gov is the U.S. government's official web portal to all federal, state and local government web resources and services.